createdAt,value
2019-04-04T00:00:58.619Z,7.30
2019-04-04T00:03:27.211Z,7.30
2019-04-04T00:05:56.618Z,7.20
2019-04-04T00:08:25.661Z,7.20
2019-04-04T00:10:54.325Z,7.10
2019-04-04T00:13:22.843Z,7.10
2019-04-04T00:15:51.406Z,7.00
2019-04-04T00:18:19.994Z,7.00
2019-04-04T00:20:48.496Z,7.00
2019-04-04T00:23:17.077Z,6.90
2019-04-04T00:25:45.641Z,6.90
2019-04-04T00:28:14.986Z,6.90
2019-04-04T00:30:44.023Z,6.90
2019-04-04T00:33:12.538Z,6.90
2019-04-04T00:35:41.103Z,6.90
2019-04-04T00:38:09.689Z,6.90
2019-04-04T00:40:38.266Z,6.90
2019-04-04T00:43:06.845Z,6.90
2019-04-04T00:45:35.416Z,6.90
2019-04-04T00:48:04.071Z,6.90
2019-04-04T00:50:32.719Z,6.90
2019-04-04T00:53:01.311Z,6.80
2019-04-04T00:55:29.948Z,6.80
2019-04-04T00:57:58.466Z,6.70
2019-04-04T01:00:26.957Z,6.70
2019-04-04T01:02:58.306Z,6.70
2019-04-04T01:05:25.759Z,6.70
2019-04-04T01:07:54.354Z,6.70
2019-04-04T01:10:22.915Z,6.70
2019-04-04T01:12:52.241Z,6.70
2019-04-04T01:15:21.338Z,6.70
2019-04-04T01:17:50.120Z,6.60
2019-04-04T01:20:20.310Z,6.60
2019-04-04T01:22:49.349Z,6.60
2019-04-04T01:25:17.910Z,6.60
2019-04-04T01:27:46.457Z,6.60
2019-04-04T01:30:15.221Z,6.60
2019-04-04T01:32:43.725Z,6.60
2019-04-04T01:35:12.326Z,6.60
2019-04-04T01:37:40.895Z,6.60
2019-04-04T01:40:09.718Z,6.70
2019-04-04T01:42:38.945Z,6.60
2019-04-04T01:45:08.048Z,6.60
2019-04-04T01:47:36.611Z,6.60
2019-04-04T01:50:05.936Z,6.60
2019-04-04T01:52:34.498Z,6.60
2019-04-04T01:55:04.053Z,6.60
2019-04-04T01:57:32.725Z,6.60
2019-04-04T02:00:01.242Z,6.50
2019-04-04T02:02:29.808Z,6.50
2019-04-04T02:04:58.401Z,6.50
2019-04-04T02:07:27.821Z,6.50
2019-04-04T02:09:57.118Z,6.50
2019-04-04T02:12:25.695Z,6.40
2019-04-04T02:14:54.285Z,6.40
2019-04-04T02:17:22.927Z,6.30
2019-04-04T02:19:51.515Z,6.20
2019-04-04T02:22:20.081Z,6.20
2019-04-04T02:24:48.778Z,6.10
2019-04-04T02:27:17.359Z,6.10
2019-04-04T02:29:45.941Z,6.10
2019-04-04T02:32:19.098Z,6.00
2019-04-04T02:34:47.679Z,6.00
2019-04-04T02:37:16.246Z,6.00
2019-04-04T02:39:44.833Z,6.00
2019-04-04T02:42:13.389Z,6.00
2019-04-04T02:44:41.913Z,5.90
2019-04-04T02:47:10.543Z,5.90
2019-04-04T02:49:39.141Z,5.90
2019-04-04T02:52:07.709Z,5.90
2019-04-04T02:54:36.310Z,5.80
2019-04-04T02:57:08.146Z,5.80
2019-04-04T02:59:35.279Z,5.80
2019-04-04T03:02:05.878Z,5.80
2019-04-04T03:04:34.150Z,5.70
2019-04-04T03:07:02.709Z,5.70
2019-04-04T03:09:31.302Z,5.60
2019-04-04T03:11:59.920Z,5.60
2019-04-04T03:14:28.579Z,5.50
2019-04-04T03:16:57.864Z,5.50
2019-04-04T03:19:26.476Z,5.50
2019-04-04T03:21:56.074Z,5.50
2019-04-04T03:24:24.737Z,5.50
2019-04-04T03:26:53.670Z,5.50
2019-04-04T03:29:22.271Z,5.50
2019-04-04T03:31:50.843Z,5.40
2019-04-04T03:34:19.428Z,5.50
2019-04-04T03:36:48.006Z,5.50
2019-04-04T03:39:19.117Z,5.50
2019-04-04T03:41:46.804Z,5.50
2019-04-04T03:44:19.590Z,5.50
2019-04-04T03:46:45.600Z,5.50
2019-04-04T03:49:14.163Z,5.50
2019-04-04T03:51:42.750Z,5.50
2019-04-04T03:54:12.958Z,5.50
2019-04-04T03:56:41.540Z,5.50
2019-04-04T03:59:10.106Z,5.50
2019-04-04T04:01:38.794Z,5.50
2019-04-04T04:04:07.383Z,5.50
2019-04-04T04:06:35.970Z,5.40
2019-04-04T04:09:06.484Z,5.30
2019-04-04T04:11:37.414Z,5.30
2019-04-04T04:14:05.450Z,5.30
2019-04-04T04:16:35.951Z,5.30
2019-04-04T04:19:04.253Z,5.30
2019-04-04T04:21:32.847Z,5.30
2019-04-04T04:24:01.403Z,5.20
2019-04-04T04:26:29.986Z,5.20
2019-04-04T04:28:58.487Z,5.10
2019-04-04T04:31:27.077Z,5.10
2019-04-04T04:33:55.649Z,5.00
2019-04-04T04:36:24.237Z,5.00
2019-04-04T04:38:52.809Z,5.00
2019-04-04T04:41:21.485Z,5.00
2019-04-04T04:43:49.968Z,5.00
2019-04-04T04:46:18.571Z,4.90
2019-04-04T04:48:47.139Z,4.90
2019-04-04T04:51:15.727Z,4.90
2019-04-04T04:53:44.299Z,4.90
2019-04-04T04:56:12.882Z,4.80
2019-04-04T04:58:42.145Z,4.80
2019-04-04T05:01:11.236Z,4.80
2019-04-04T05:03:39.820Z,4.80
2019-04-04T05:06:08.381Z,4.70
2019-04-04T05:08:36.955Z,4.70
2019-04-04T05:11:05.554Z,4.70
2019-04-04T05:13:34.117Z,4.70
2019-04-04T05:16:04.798Z,4.70
2019-04-04T05:18:32.935Z,4.70
2019-04-04T05:21:02.498Z,4.80
2019-04-04T05:23:31.235Z,4.80
2019-04-04T05:26:02.554Z,4.80
2019-04-04T05:28:30.015Z,4.90
2019-04-04T05:30:58.612Z,5.00
2019-04-04T05:33:28.004Z,5.00
2019-04-04T05:35:57.447Z,5.10
2019-04-04T05:38:25.997Z,5.10
2019-04-04T05:40:55.348Z,5.20
2019-04-04T05:43:24.639Z,5.20
2019-04-04T05:45:53.205Z,5.20
2019-04-04T05:48:21.718Z,5.20
2019-04-04T05:50:50.328Z,5.30
2019-04-04T05:53:21.331Z,5.40
2019-04-04T05:55:49.086Z,5.40
2019-04-04T05:58:17.578Z,5.40
2019-04-04T06:00:46.967Z,5.50
2019-04-04T06:03:15.927Z,5.50
2019-04-04T06:05:44.482Z,5.50
2019-04-04T06:08:12.999Z,5.50
2019-04-04T06:10:41.579Z,5.50
2019-04-04T06:13:10.147Z,5.40
2019-04-04T06:15:38.720Z,5.50
2019-04-04T06:18:10.804Z,5.50
2019-04-04T06:20:37.592Z,5.60
2019-04-04T06:23:06.183Z,5.50
2019-04-04T06:25:35.874Z,5.60
2019-04-04T06:28:04.592Z,5.60
2019-04-04T06:30:42.946Z,5.70
2019-04-04T06:33:04.840Z,5.70
2019-04-04T06:35:34.085Z,5.70
2019-04-04T06:38:02.670Z,5.70
2019-04-04T06:40:31.244Z,5.70
2019-04-04T06:42:59.827Z,5.80
2019-04-04T06:45:29.672Z,5.80
2019-04-04T06:47:58.426Z,5.80
2019-04-04T06:50:26.988Z,5.80
2019-04-04T06:52:56.633Z,5.80
2019-04-04T06:55:28.346Z,5.90
2019-04-04T06:57:55.581Z,6.00
2019-04-04T07:00:24.146Z,6.10
2019-04-04T07:02:55.255Z,6.10
2019-04-04T07:05:22.946Z,6.20
2019-04-04T07:07:51.469Z,6.20
2019-04-04T07:10:21.714Z,6.20
2019-04-04T07:12:50.270Z,6.20
2019-04-04T07:15:18.975Z,6.20
2019-04-04T07:17:47.591Z,6.30
2019-04-04T07:20:17.124Z,6.20
2019-04-04T07:22:46.172Z,6.20
2019-04-04T07:25:14.815Z,6.20
2019-04-04T07:27:45.270Z,6.30
2019-04-04T07:30:15.418Z,6.30
2019-04-04T07:32:44.164Z,6.30
2019-04-04T07:35:12.955Z,6.30
2019-04-04T07:37:41.549Z,6.30
2019-04-04T07:40:10.866Z,6.30
2019-04-04T07:42:40.328Z,6.30
2019-04-04T07:45:09.466Z,6.30
2019-04-04T07:47:38.072Z,6.40
2019-04-04T07:50:07.282Z,6.40
2019-04-04T07:52:35.790Z,6.50
2019-04-04T07:55:05.094Z,6.60
2019-04-04T07:57:33.750Z,6.60
2019-04-04T08:00:02.245Z,6.70
2019-04-04T08:02:30.829Z,6.80
2019-04-04T08:04:59.397Z,6.90
2019-04-04T08:07:27.906Z,7.00
2019-04-04T08:09:56.473Z,7.10
2019-04-04T08:12:25.326Z,7.10
2019-04-04T08:14:53.916Z,7.10
2019-04-04T08:17:22.574Z,7.10
2019-04-04T08:19:59.688Z,7.00
2019-04-04T08:22:21.421Z,7.00
2019-04-04T08:24:50.100Z,7.00
2019-04-04T08:27:20.428Z,7.00
2019-04-04T08:29:48.994Z,7.10
2019-04-04T08:32:17.590Z,7.00
2019-04-04T08:34:46.158Z,6.90
2019-04-04T08:37:14.840Z,6.90
2019-04-04T08:39:43.407Z,6.90
2019-04-04T08:42:12.006Z,6.80
2019-04-04T08:44:40.598Z,6.80
2019-04-04T08:47:09.186Z,6.90
2019-04-04T08:49:37.682Z,6.90
2019-04-04T08:52:16.036Z,6.90
2019-04-04T08:54:36.466Z,6.90
2019-04-04T08:57:05.078Z,6.80
2019-04-04T08:59:33.659Z,6.80
2019-04-04T09:02:02.247Z,6.70
2019-04-04T09:04:30.832Z,6.70
2019-04-04T09:06:59.434Z,6.80
2019-04-04T09:09:28.019Z,6.80
2019-04-04T09:11:56.615Z,6.90
2019-04-04T09:14:25.185Z,6.90
2019-04-04T09:16:53.745Z,6.90
2019-04-04T09:19:22.258Z,7.00
2019-04-04T09:21:50.832Z,7.00
2019-04-04T09:24:19.417Z,7.10
2019-04-04T09:26:47.979Z,7.20
2019-04-04T09:29:16.562Z,7.20
2019-04-04T09:31:45.058Z,7.20
2019-04-04T09:34:13.651Z,7.20
2019-04-04T09:36:42.227Z,7.20
2019-04-04T09:39:10.897Z,7.20
2019-04-04T09:41:39.477Z,7.20
2019-04-04T09:44:08.077Z,7.20
2019-04-04T09:46:36.656Z,7.30
2019-04-04T09:49:05.313Z,7.40
2019-04-04T09:51:33.806Z,7.50
2019-04-04T09:54:02.394Z,7.50
2019-04-04T09:56:30.954Z,7.60
2019-04-04T09:58:59.545Z,7.60
2019-04-04T10:01:28.109Z,7.60
2019-04-04T10:03:56.702Z,7.60
2019-04-04T10:06:25.262Z,7.60
2019-04-04T10:08:53.845Z,7.60
2019-04-04T10:11:22.548Z,7.60
2019-04-04T10:13:51.168Z,7.60
2019-04-04T10:16:19.709Z,7.70
2019-04-04T10:18:48.361Z,7.90
2019-04-04T10:21:16.874Z,8.00
2019-04-04T10:23:45.467Z,8.00
2019-04-04T10:26:14.029Z,8.00
2019-04-04T10:31:16.499Z,7.90
2019-04-04T10:33:45.091Z,7.80
2019-04-04T10:36:13.666Z,7.70
2019-04-04T10:38:42.261Z,7.70
2019-04-04T10:41:10.827Z,7.60
2019-04-04T10:43:39.353Z,7.60
2019-04-04T10:46:07.925Z,7.50
2019-04-04T10:48:36.521Z,7.40
2019-04-04T10:51:05.172Z,7.30
2019-04-04T10:53:33.827Z,7.30
2019-04-04T10:56:02.402Z,7.30
2019-04-04T10:58:30.993Z,7.40
2019-04-04T11:00:59.553Z,7.40
2019-04-04T11:03:28.070Z,7.40
2019-04-04T11:05:56.703Z,7.40
2019-04-04T11:08:25.279Z,7.50
2019-04-04T11:10:53.866Z,7.70
2019-04-04T11:38:48.209Z,8.50
2019-04-04T11:41:16.816Z,8.00
2019-04-04T11:43:45.368Z,7.90
2019-04-04T11:46:13.966Z,7.90
2019-04-04T11:48:42.508Z,7.90
2019-04-04T11:51:11.091Z,7.80
2019-04-04T11:53:39.662Z,7.80
2019-04-04T11:56:08.239Z,7.80
2019-04-04T11:58:36.802Z,7.70
2019-04-04T12:01:07.214Z,7.70
2019-04-04T12:03:35.774Z,7.70
2019-04-04T12:06:04.352Z,7.70
2019-04-04T12:08:32.917Z,7.60
2019-04-04T12:11:01.509Z,7.70
2019-04-04T12:13:30.069Z,7.70
2019-04-04T12:15:58.578Z,7.60
2019-04-04T12:18:27.067Z,7.50
2019-04-04T12:20:55.580Z,7.60
2019-04-04T12:23:24.146Z,7.60
2019-04-04T12:25:52.794Z,7.60
2019-04-04T12:28:21.366Z,7.70
2019-04-04T12:30:49.944Z,7.80
2019-04-04T12:33:18.510Z,7.70
2019-04-04T12:35:47.098Z,7.60
2019-04-04T12:38:15.599Z,7.50
2019-04-04T12:40:44.173Z,7.50
2019-04-04T12:43:13.189Z,7.50
2019-04-04T12:45:41.789Z,7.60
2019-04-04T12:48:10.347Z,7.70
2019-04-04T12:50:38.925Z,7.80
2019-04-04T12:53:07.473Z,7.90
2019-04-04T12:55:35.986Z,7.90
2019-04-04T12:58:04.481Z,7.90
2019-04-04T13:03:06.789Z,8.00
2019-04-04T13:05:36.720Z,8.10
2019-04-04T13:08:06.371Z,8.20
2019-04-04T13:10:34.950Z,8.20
2019-04-04T13:13:03.437Z,8.20
2019-04-04T13:15:31.951Z,8.20
2019-04-04T13:18:00.508Z,8.20
2019-04-04T13:20:29.962Z,8.00
2019-04-04T13:22:58.458Z,7.80
2019-04-04T13:25:26.974Z,7.70
2019-04-04T13:27:57.288Z,7.70
2019-04-04T13:30:26.031Z,7.60
2019-04-04T13:32:54.656Z,7.50
2019-04-04T13:35:25.122Z,7.50
2019-04-04T13:37:53.681Z,7.30
2019-04-04T13:40:22.191Z,7.30
2019-04-04T13:42:52.706Z,7.40
2019-04-04T13:45:22.943Z,7.40
2019-04-04T13:47:51.262Z,7.30
2019-04-04T13:50:20.643Z,7.30
2019-04-04T13:52:49.259Z,7.20
2019-04-04T13:55:17.840Z,7.20
2019-04-04T13:57:47.687Z,7.30
2019-04-04T14:00:17.027Z,7.20
2019-04-04T14:02:45.585Z,7.20
2019-04-04T14:05:14.668Z,7.30
2019-04-04T14:07:44.101Z,7.30
2019-04-04T14:10:12.878Z,7.30
2019-04-04T14:12:41.458Z,7.30
2019-04-04T14:15:10.949Z,7.20
2019-04-04T14:17:39.455Z,7.20
2019-04-04T14:20:09.961Z,7.10
2019-04-04T14:22:38.601Z,7.10
2019-04-04T14:25:07.353Z,7.00
2019-04-04T14:27:35.994Z,7.00
2019-04-04T14:30:06.404Z,7.00
2019-04-04T14:32:35.094Z,7.00
2019-04-04T14:35:04.722Z,7.00
2019-04-04T14:37:33.282Z,7.00
2019-04-04T14:40:01.771Z,7.00
2019-04-04T14:42:30.341Z,7.00
2019-04-04T14:44:59.891Z,7.10
2019-04-04T14:47:29.055Z,7.10
2019-04-04T14:49:57.544Z,7.10
2019-04-04T14:52:26.121Z,7.10
2019-04-04T14:54:54.610Z,7.10
2019-04-04T14:57:23.202Z,7.10
2019-04-04T14:59:51.680Z,7.10
2019-04-04T15:02:20.426Z,7.10
2019-04-04T15:04:48.982Z,7.00
2019-04-04T15:07:17.487Z,7.00
2019-04-04T15:09:46.044Z,7.00
2019-04-04T15:12:14.618Z,6.90
2019-04-04T15:14:43.125Z,6.90
2019-04-04T15:17:11.643Z,7.00
2019-04-04T15:19:40.208Z,6.90
2019-04-04T15:22:08.786Z,7.00
2019-04-04T15:24:37.279Z,7.00
2019-04-04T15:27:05.865Z,6.90
2019-04-04T15:29:34.354Z,7.00
2019-04-04T15:32:03.006Z,7.00
2019-04-04T15:34:31.569Z,7.00
2019-04-04T15:37:00.151Z,7.00
2019-04-04T15:39:28.942Z,7.00
2019-04-04T15:41:57.473Z,6.90
2019-04-04T15:44:25.958Z,6.90
2019-04-04T15:46:54.542Z,6.80
2019-04-04T15:49:23.033Z,6.80
2019-04-04T15:51:51.617Z,6.80
2019-04-04T15:54:20.106Z,6.80
2019-04-04T15:56:48.694Z,6.70
2019-04-04T15:59:17.259Z,6.70
2019-04-04T16:01:45.949Z,6.70
2019-04-04T16:04:14.442Z,6.70
2019-04-04T16:06:43.025Z,6.70
2019-04-04T16:09:11.593Z,6.60
2019-04-04T16:11:49.233Z,6.70
2019-04-04T16:14:10.465Z,6.60
2019-04-04T16:16:39.040Z,6.70
2019-04-04T16:19:07.534Z,6.70
2019-04-04T16:21:36.115Z,6.70
2019-04-04T16:24:04.750Z,6.80
2019-04-04T16:26:33.330Z,6.70
2019-04-04T16:29:01.890Z,6.70
2019-04-04T16:31:30.482Z,6.70
2019-04-04T16:33:59.063Z,6.80
2019-04-04T16:36:27.597Z,6.70
2019-04-04T16:38:56.110Z,6.70
2019-04-04T16:41:24.747Z,6.80
2019-04-04T16:43:53.336Z,6.80
2019-04-04T16:46:21.917Z,6.80
2019-04-04T16:48:50.498Z,6.90
2019-04-04T16:51:19.068Z,6.90
2019-04-04T16:53:48.798Z,6.90
2019-04-04T16:56:17.289Z,6.90
2019-04-04T16:58:45.873Z,6.90
2019-04-04T17:01:14.353Z,6.80
2019-04-04T17:03:42.866Z,6.70
2019-04-04T17:06:11.354Z,6.70
2019-04-04T17:08:39.942Z,6.70
2019-04-04T17:11:08.519Z,6.70
2019-04-04T17:13:37.105Z,6.70
2019-04-04T17:16:05.808Z,6.80
2019-04-04T17:18:34.395Z,6.70
2019-04-04T17:21:02.962Z,6.80
2019-04-04T17:23:31.545Z,6.80
2019-04-04T17:26:00.120Z,6.80
2019-04-04T17:28:28.624Z,6.70
2019-04-04T17:30:57.640Z,6.70
2019-04-04T17:33:26.453Z,6.70
2019-04-04T17:35:55.000Z,6.60
2019-04-04T17:38:24.083Z,6.70
2019-04-04T17:40:52.973Z,6.60
2019-04-04T17:43:22.037Z,6.60
2019-04-04T17:45:50.713Z,6.60
2019-04-04T17:48:19.247Z,6.60
2019-04-04T17:50:48.379Z,6.60
2019-04-04T17:53:17.017Z,6.60
2019-04-04T17:55:46.097Z,6.60
2019-04-04T17:58:14.800Z,6.70
2019-04-04T18:00:43.287Z,6.60
2019-04-04T18:03:11.791Z,6.70
2019-04-04T18:05:40.383Z,6.70
2019-04-04T18:08:08.982Z,6.70
2019-04-04T18:10:37.546Z,6.70
2019-04-04T18:13:06.064Z,6.60
2019-04-04T18:15:34.638Z,6.60
2019-04-04T18:18:03.203Z,6.60
2019-04-04T18:20:31.835Z,6.60
2019-04-04T18:23:00.349Z,6.60
2019-04-04T18:25:28.913Z,6.50
2019-04-04T18:27:57.503Z,6.50
2019-04-04T18:30:26.133Z,6.50
2019-04-04T18:32:54.706Z,6.50
2019-04-04T18:35:23.194Z,6.40
2019-04-04T18:37:51.847Z,6.40
2019-04-04T18:40:20.517Z,6.40
2019-04-04T18:42:53.437Z,6.40
2019-04-04T18:45:19.371Z,6.40
2019-04-04T18:47:47.931Z,6.30
2019-04-04T18:50:16.658Z,6.30
2019-04-04T18:52:45.206Z,6.30
2019-04-04T18:55:19.739Z,6.30
2019-04-04T18:57:44.060Z,6.30
2019-04-04T19:00:13.710Z,6.30
2019-04-04T19:02:42.612Z,6.20
2019-04-04T19:05:11.635Z,6.30
2019-04-04T19:07:40.194Z,6.30
2019-04-04T19:10:09.117Z,6.30
2019-04-04T19:12:37.818Z,6.40
2019-04-04T19:15:07.962Z,6.40
2019-04-04T19:17:36.678Z,6.40
2019-04-04T19:20:09.992Z,6.40
2019-04-04T19:22:38.018Z,6.40
2019-04-04T19:25:08.065Z,6.40
2019-04-04T19:27:36.702Z,6.40
2019-04-04T19:30:11.525Z,6.40
2019-04-04T19:32:40.082Z,6.30
2019-04-04T19:35:08.931Z,6.30
2019-04-04T19:37:37.538Z,6.30
2019-04-04T19:40:06.752Z,6.20
2019-04-04T19:42:35.326Z,6.20
2019-04-04T19:45:05.873Z,6.30
2019-04-04T19:47:34.364Z,6.30
2019-04-04T19:50:03.213Z,6.30
2019-04-04T19:52:31.777Z,6.30
2019-04-04T19:55:00.286Z,6.30
2019-04-04T19:57:29.061Z,6.30
2019-04-04T19:59:57.647Z,6.30
2019-04-04T20:02:26.209Z,6.40
2019-04-04T20:04:54.719Z,6.30
2019-04-04T20:07:23.282Z,6.30
2019-04-04T20:09:51.875Z,6.30
2019-04-04T20:12:20.783Z,6.30
2019-04-04T20:14:49.370Z,6.30
2019-04-04T20:17:17.929Z,6.30
2019-04-04T20:19:46.514Z,6.30
2019-04-04T20:22:15.009Z,6.30
2019-04-04T20:24:43.531Z,6.30
2019-04-04T20:27:12.157Z,6.30
2019-04-04T20:29:40.670Z,6.30
2019-04-04T20:32:09.234Z,6.30
2019-04-04T20:34:37.818Z,6.20
2019-04-04T20:37:06.302Z,6.20
2019-04-04T20:39:34.892Z,6.30
2019-04-04T20:42:03.445Z,6.30
2019-04-04T20:44:32.033Z,6.30
2019-04-04T20:47:00.600Z,6.30
2019-04-04T20:49:29.162Z,6.30
2019-04-04T20:51:57.751Z,6.30
2019-04-04T20:54:26.318Z,6.30
2019-04-04T20:56:54.835Z,6.40
2019-04-04T20:59:23.401Z,6.40
2019-04-04T21:01:51.921Z,6.40
2019-04-04T21:04:20.488Z,6.40
2019-04-04T21:06:49.074Z,6.30
2019-04-04T21:09:17.641Z,6.30
2019-04-04T21:11:46.230Z,6.20
2019-04-04T21:14:14.799Z,6.20
2019-04-04T21:16:43.384Z,6.20
2019-04-04T21:19:11.950Z,6.20
2019-04-04T21:21:40.460Z,6.20
2019-04-04T21:24:08.950Z,6.20
2019-04-04T21:26:37.529Z,6.20
2019-04-04T21:29:06.023Z,6.30
2019-04-04T21:31:34.607Z,6.30
2019-04-04T21:34:03.177Z,6.30
2019-04-04T21:36:31.695Z,6.30
2019-04-04T21:39:00.262Z,6.20
2019-04-04T21:41:28.850Z,6.30
2019-04-04T21:44:08.100Z,6.30
2019-04-04T21:46:27.566Z,6.30
2019-04-04T21:48:56.050Z,6.30
2019-04-04T21:51:24.634Z,6.30
2019-04-04T21:53:53.198Z,6.30
2019-04-04T21:56:21.782Z,6.30
2019-04-04T21:58:50.345Z,6.30
2019-04-04T22:01:19.064Z,6.30
2019-04-04T22:03:47.629Z,6.30
2019-04-04T22:06:16.156Z,6.40
2019-04-04T22:08:44.933Z,6.40
2019-04-04T22:11:13.675Z,6.30
2019-04-04T22:13:42.243Z,6.30
2019-04-04T22:16:10.911Z,6.30
2019-04-04T22:18:39.398Z,6.30
2019-04-04T22:21:07.992Z,6.20
2019-04-04T22:23:36.617Z,6.20
2019-04-04T22:26:05.127Z,6.30
2019-04-04T22:28:33.698Z,6.30
2019-04-04T22:31:02.207Z,6.20
2019-04-04T22:33:30.765Z,6.20
2019-04-04T22:35:59.350Z,6.20
2019-04-04T22:38:27.926Z,6.20
2019-04-04T22:40:56.515Z,6.20
2019-04-04T22:43:25.080Z,6.30
2019-04-04T22:45:53.660Z,6.30
2019-04-04T22:48:22.221Z,6.20
2019-04-04T22:50:50.803Z,6.20
2019-04-04T22:53:19.369Z,6.20
2019-04-04T22:55:47.878Z,6.30
2019-04-04T22:58:27.601Z,6.40
2019-04-04T23:00:46.674Z,6.40
2019-04-04T23:03:15.905Z,6.40
2019-04-04T23:05:44.416Z,6.40
2019-04-04T23:08:13.154Z,6.40
2019-04-04T23:10:41.738Z,6.40
2019-04-04T23:13:10.235Z,6.40
2019-04-04T23:15:38.835Z,6.30
2019-04-04T23:18:07.404Z,6.30
2019-04-04T23:20:35.957Z,6.30
2019-04-04T23:23:04.468Z,6.40
2019-04-04T23:25:33.058Z,6.40
2019-04-04T23:28:01.618Z,6.40
2019-04-04T23:30:30.254Z,6.30
2019-04-04T23:32:58.973Z,6.30
2019-04-04T23:35:27.465Z,6.30
2019-04-04T23:37:56.059Z,6.30
2019-04-04T23:40:24.622Z,6.20
2019-04-04T23:42:53.209Z,6.20
2019-04-04T23:45:21.775Z,6.20
2019-04-04T23:47:50.359Z,6.20
2019-04-04T23:50:18.930Z,6.30
2019-04-04T23:52:47.515Z,6.30
2019-04-04T23:55:16.090Z,6.30
2019-04-04T23:57:44.680Z,6.30
